< Typhoon 198614 1986 Season Typhoon 198616 >
Typhoon 198615 (NO-NAME)
General InformationTrack Information on Google MapsDetailed Wind InformationList of All Images || NewsDisaster Info.ResourceGoogle EarthGE AnimationAtom FeedGeoJSON
Detalied Best Track (Time Zone = UTC)
Year Month Day Hour Lat. Long. Pressure (hPa) Wind (kt) Class Image Chart
1986 8 28 06 24.0 160.0 1004 0 2 Image Chart
1986 8 28 12 23.5 160.0 1004 0 2 Image Chart
1986 8 28 18 23.0 160.0 1004 0 2 Image Chart
1986 8 29 00 22.5 160.0 1004 0 2 Image Chart
1986 8 29 06 22.2 159.8 1002 0 2 Image Chart
1986 8 29 12 22.0 159.4 1002 0 2 Image Chart
1986 8 29 18 22.1 158.6 1000 0 2 Image Chart
1986 8 30 00 22.3 157.4 1000 0 2 Image Chart
1986 8 30 06 22.7 155.7 998 0 2 Image Chart
1986 8 30 12 23.2 153.9 998 0 2 Image Chart
1986 8 30 18 23.6 152.3 998 0 2 Image Chart
1986 8 31 00 24.1 150.7 996 0 2 Image Chart
1986 8 31 06 24.6 149.1 996 0 2 Image Chart
1986 8 31 12 25.1 147.5 996 0 2 Image Chart
1986 8 31 18 25.6 145.8 996 0 2 Image Chart
1986 9 1 00 26.3 144.3 996 0 2 Image Chart
1986 9 1 06 27.0 142.8 994 0 2 Image Chart
1986 9 1 12 27.9 141.7 994 0 2 Image Chart
1986 9 1 18 28.8 140.8 994 0 2 Image Chart
1986 9 2 00 29.8 140.0 994 0 2 Image Chart
1986 9 2 06 30.8 139.4 992 35 3 Image Chart
1986 9 2 12 31.9 138.8 992 35 3 Image Chart
1986 9 2 18 33.3 138.2 992 35 3 Image Chart
1986 9 3 00 34.5 139.1 996 0 2 Image Chart
1986 9 3 06 36.1 139.9 997 0 2 Image Chart
1986 9 3 12 38.2 141.2 998 0 2 Image Chart
1986 9 3 18 40.5 143.0 998 0 2 Image Chart
1986 9 4 00 41.0 145.0 998 0 6 Image Chart
1986 9 4 06 41.5 147.5 996 0 6 Image Chart
1986 9 4 12 42.0 150.0 996 0 6 Image Chart
1986 9 4 18 42.0 151.5 996 0 6 Image Chart
1986 9 5 00 41.5 153.0 996 0 6 Image Chart
1986 9 5 06 41.0 155.0 996 0 6 Image Chart
1986 9 5 12 40.0 157.0 1000 0 6 Image Chart
1986 9 5 18 39.5 159.0 1000 0 6 Image Chart
1986 9 6 00 39.0 161.0 1000 0 6 Image Chart
1986 9 6 06 39.0 165.0 1000 0 6 Image Chart
1986 9 6 12 39.0 168.0 1002 0 6 Image Chart
1986 9 6 18 39.0 171.0 1002 0 6 Image Chart
1986 9 7 00 39.0 173.0 1004 0 6 Image Chart
1986 9 7 06 39.0 175.0 1008 0 6 Image Chart
1986 9 7 12 39.0 177.0 1012 0 6 Image Chart
1986 9 7 18 39.0 179.0 1016 0 6 Image Chart
Japan Meteorological Agency Best Track Data | Correction Date : 1992-10-21
< Typhoon 198614 1986 Season Typhoon 198616 >

Help